sensor_id;sensor_type;location;lat;lon;timestamp;P1;durP1;ratioP1;P2;durP2;ratioP2
58412;SDS011;44209;52.952;6.790;2023-01-05T00:01:05;17.90;;;4.40;;
58412;SDS011;44209;52.952;6.790;2023-01-05T00:03:34;17.20;;;4.23;;
58412;SDS011;44209;52.952;6.790;2023-01-05T00:06:01;18.63;;;4.37;;
58412;SDS011;44209;52.952;6.790;2023-01-05T00:08:40;18.60;;;4.23;;
58412;SDS011;44209;52.952;6.790;2023-01-05T00:11:10;15.30;;;3.77;;
58412;SDS011;44209;52.952;6.790;2023-01-05T00:13:56;17.63;;;4.13;;
58412;SDS011;44209;52.952;6.790;2023-01-05T00:16:46;13.00;;;4.27;;
58412;SDS011;44209;52.952;6.790;2023-01-05T00:19:30;18.67;;;4.33;;
58412;SDS011;44209;52.952;6.790;2023-01-05T00:22:16;23.17;;;5.30;;
58412;SDS011;44209;52.952;6.790;2023-01-05T00:25:03;24.90;;;5.00;;
58412;SDS011;44209;52.952;6.790;2023-01-05T00:27:33;17.27;;;4.80;;
58412;SDS011;44209;52.952;6.790;2023-01-05T00:29:59;22.17;;;5.47;;
58412;SDS011;44209;52.952;6.790;2023-01-05T00:32:25;20.73;;;4.50;;
58412;SDS011;44209;52.952;6.790;2023-01-05T00:34:58;24.70;;;5.53;;
58412;SDS011;44209;52.952;6.790;2023-01-05T00:37:32;23.27;;;5.43;;
58412;SDS011;44209;52.952;6.790;2023-01-05T00:39:59;19.20;;;4.67;;
58412;SDS011;44209;52.952;6.790;2023-01-05T00:42:25;24.27;;;6.07;;
58412;SDS011;44209;52.952;6.790;2023-01-05T00:44:51;23.33;;;5.43;;
58412;SDS011;44209;52.952;6.790;2023-01-05T00:47:17;20.70;;;5.53;;
58412;SDS011;44209;52.952;6.790;2023-01-05T00:49:43;23.43;;;5.10;;
58412;SDS011;44209;52.952;6.790;2023-01-05T00:52:08;18.30;;;5.07;;
58412;SDS011;44209;52.952;6.790;2023-01-05T00:54:34;23.10;;;5.17;;
58412;SDS011;44209;52.952;6.790;2023-01-05T00:57:00;21.33;;;4.77;;
58412;SDS011;44209;52.952;6.790;2023-01-05T00:59:26;18.57;;;4.43;;
58412;SDS011;44209;52.952;6.790;2023-01-05T01:01:52;18.17;;;4.80;;
58412;SDS011;44209;52.952;6.790;2023-01-05T01:04:19;18.83;;;4.77;;
58412;SDS011;44209;52.952;6.790;2023-01-05T01:06:45;19.80;;;4.63;;
58412;SDS011;44209;52.952;6.790;2023-01-05T01:09:11;21.30;;;5.27;;
58412;SDS011;44209;52.952;6.790;2023-01-05T01:11:38;20.57;;;4.77;;
58412;SDS011;44209;52.952;6.790;2023-01-05T01:14:05;20.00;;;5.13;;
58412;SDS011;44209;52.952;6.790;2023-01-05T01:16:32;25.23;;;4.80;;
58412;SDS011;44209;52.952;6.790;2023-01-05T01:18:58;17.43;;;3.70;;
58412;SDS011;44209;52.952;6.790;2023-01-05T01:21:31;21.20;;;4.50;;
58412;SDS011;44209;52.952;6.790;2023-01-05T01:23:57;24.03;;;5.97;;
58412;SDS011;44209;52.952;6.790;2023-01-05T01:26:23;23.50;;;4.53;;
58412;SDS011;44209;52.952;6.790;2023-01-05T01:28:48;23.00;;;4.20;;
58412;SDS011;44209;52.952;6.790;2023-01-05T01:31:17;18.93;;;4.93;;
58412;SDS011;44209;52.952;6.790;2023-01-05T01:33:42;19.70;;;4.87;;
58412;SDS011;44209;52.952;6.790;2023-01-05T01:36:08;14.97;;;4.10;;
58412;SDS011;44209;52.952;6.790;2023-01-05T01:38:34;17.50;;;4.50;;
58412;SDS011;44209;52.952;6.790;2023-01-05T01:41:00;16.53;;;4.00;;
58412;SDS011;44209;52.952;6.790;2023-01-05T01:46:09;20.17;;;4.30;;
58412;SDS011;44209;52.952;6.790;2023-01-05T01:48:36;19.90;;;4.73;;
58412;SDS011;44209;52.952;6.790;2023-01-05T01:51:06;18.13;;;4.47;;
58412;SDS011;44209;52.952;6.790;2023-01-05T01:53:43;11.43;;;4.07;;
58412;SDS011;44209;52.952;6.790;2023-01-05T01:56:13;19.90;;;4.83;;
58412;SDS011;44209;52.952;6.790;2023-01-05T01:58:42;22.00;;;4.30;;
58412;SDS011;44209;52.952;6.790;2023-01-05T02:01:08;21.80;;;4.27;;
58412;SDS011;44209;52.952;6.790;2023-01-05T02:03:35;20.03;;;4.77;;
58412;SDS011;44209;52.952;6.790;2023-01-05T02:06:02;18.33;;;4.63;;
58412;SDS011;44209;52.952;6.790;2023-01-05T02:08:27;17.63;;;4.60;;
58412;SDS011;44209;52.952;6.790;2023-01-05T02:13:53;17.93;;;4.30;;
58412;SDS011;44209;52.952;6.790;2023-01-05T02:36:49;17.47;;;3.80;;
58412;SDS011;44209;52.952;6.790;2023-01-05T02:39:23;23.90;;;4.83;;
58412;SDS011;44209;52.952;6.790;2023-01-05T02:41:57;20.10;;;5.03;;
58412;SDS011;44209;52.952;6.790;2023-01-05T02:44:26;20.20;;;4.40;;
58412;SDS011;44209;52.952;6.790;2023-01-05T02:47:01;25.73;;;5.23;;
58412;SDS011;44209;52.952;6.790;2023-01-05T02:49:30;19.67;;;4.70;;
58412;SDS011;44209;52.952;6.790;2023-01-05T02:52:02;22.53;;;4.80;;
58412;SDS011;44209;52.952;6.790;2023-01-05T02:54:32;18.83;;;4.40;;
58412;SDS011;44209;52.952;6.790;2023-01-05T02:57:07;20.47;;;4.57;;
58412;SDS011;44209;52.952;6.790;2023-01-05T02:59:38;20.83;;;4.57;;
58412;SDS011;44209;52.952;6.790;2023-01-05T03:02:12;20.97;;;4.97;;
58412;SDS011;44209;52.952;6.790;2023-01-05T03:04:47;22.08;;;5.15;;
58412;SDS011;44209;52.952;6.790;2023-01-05T03:07:18;23.57;;;5.37;;
58412;SDS011;44209;52.952;6.790;2023-01-05T03:09:50;26.30;;;5.17;;
58412;SDS011;44209;52.952;6.790;2023-01-05T03:12:32;19.70;;;4.57;;
58412;SDS011;44209;52.952;6.790;2023-01-05T03:17:50;22.83;;;5.28;;
58412;SDS011;44209;52.952;6.790;2023-01-05T03:20:20;16.87;;;4.50;;
58412;SDS011;44209;52.952;6.790;2023-01-05T03:22:49;26.50;;;5.97;;
58412;SDS011;44209;52.952;6.790;2023-01-05T03:25:37;18.97;;;4.27;;
58412;SDS011;44209;52.952;6.790;2023-01-05T03:28:23;26.50;;;4.97;;
58412;SDS011;44209;52.952;6.790;2023-01-05T03:31:32;21.60;;;4.80;;
58412;SDS011;44209;52.952;6.790;2023-01-05T03:34:29;18.00;;;4.60;;
58412;SDS011;44209;52.952;6.790;2023-01-05T03:37:47;22.33;;;5.73;;
58412;SDS011;44209;52.952;6.790;2023-01-05T03:40:38;20.93;;;4.60;;
58412;SDS011;44209;52.952;6.790;2023-01-05T03:43:05;20.87;;;4.63;;
58412;SDS011;44209;52.952;6.790;2023-01-05T03:45:41;25.20;;;5.50;;
58412;SDS011;44209;52.952;6.790;2023-01-05T03:48:09;22.80;;;5.23;;
58412;SDS011;44209;52.952;6.790;2023-01-05T03:50:36;17.67;;;5.23;;
58412;SDS011;44209;52.952;6.790;2023-01-05T03:53:02;24.43;;;5.53;;
58412;SDS011;44209;52.952;6.790;2023-01-05T03:55:28;25.50;;;5.53;;
58412;SDS011;44209;52.952;6.790;2023-01-05T03:57:54;27.03;;;5.77;;
58412;SDS011;44209;52.952;6.790;2023-01-05T04:00:20;20.97;;;5.13;;
58412;SDS011;44209;52.952;6.790;2023-01-05T04:02:46;16.00;;;5.43;;
58412;SDS011;44209;52.952;6.790;2023-01-05T04:05:12;17.17;;;4.63;;
58412;SDS011;44209;52.952;6.790;2023-01-05T04:07:37;25.43;;;5.20;;
58412;SDS011;44209;52.952;6.790;2023-01-05T04:10:03;28.47;;;6.37;;
58412;SDS011;44209;52.952;6.790;2023-01-05T04:12:30;20.10;;;5.03;;
58412;SDS011;44209;52.952;6.790;2023-01-05T04:14:55;23.27;;;5.20;;
58412;SDS011;44209;52.952;6.790;2023-01-05T04:17:21;23.03;;;4.93;;
58412;SDS011;44209;52.952;6.790;2023-01-05T04:19:47;25.93;;;5.30;;
58412;SDS011;44209;52.952;6.790;2023-01-05T04:22:13;20.77;;;4.60;;
58412;SDS011;44209;52.952;6.790;2023-01-05T04:24:38;20.93;;;5.13;;
58412;SDS011;44209;52.952;6.790;2023-01-05T04:27:04;20.93;;;5.60;;
58412;SDS011;44209;52.952;6.790;2023-01-05T04:29:30;23.07;;;5.70;;
58412;SDS011;44209;52.952;6.790;2023-01-05T04:31:55;23.00;;;4.87;;
58412;SDS011;44209;52.952;6.790;2023-01-05T04:34:21;20.57;;;5.50;;
58412;SDS011;44209;52.952;6.790;2023-01-05T04:36:47;23.93;;;4.77;;
58412;SDS011;44209;52.952;6.790;2023-01-05T04:39:13;19.97;;;5.20;;
58412;SDS011;44209;52.952;6.790;2023-01-05T04:41:39;23.97;;;6.00;;
58412;SDS011;44209;52.952;6.790;2023-01-05T04:44:05;25.87;;;5.33;;
58412;SDS011;44209;52.952;6.790;2023-01-05T04:46:31;18.40;;;5.57;;
58412;SDS011;44209;52.952;6.790;2023-01-05T04:48:57;22.70;;;5.27;;
58412;SDS011;44209;52.952;6.790;2023-01-05T04:51:23;19.23;;;5.00;;
58412;SDS011;44209;52.952;6.790;2023-01-05T04:53:49;23.53;;;5.37;;
58412;SDS011;44209;52.952;6.790;2023-01-05T04:56:15;21.93;;;5.63;;
58412;SDS011;44209;52.952;6.790;2023-01-05T04:58:41;21.33;;;5.17;;
58412;SDS011;44209;52.952;6.790;2023-01-05T05:01:07;19.87;;;4.50;;
58412;SDS011;44209;52.952;6.790;2023-01-05T05:03:33;17.63;;;5.00;;
58412;SDS011;44209;52.952;6.790;2023-01-05T05:05:59;24.90;;;5.83;;
58412;SDS011;44209;52.952;6.790;2023-01-05T05:08:24;24.00;;;5.53;;
58412;SDS011;44209;52.952;6.790;2023-01-05T05:10:50;24.67;;;4.80;;
58412;SDS011;44209;52.952;6.790;2023-01-05T05:13:16;16.00;;;4.73;;
58412;SDS011;44209;52.952;6.790;2023-01-05T05:15:43;18.37;;;4.67;;
58412;SDS011;44209;52.952;6.790;2023-01-05T05:18:09;14.47;;;4.20;;
58412;SDS011;44209;52.952;6.790;2023-01-05T05:20:35;19.67;;;4.40;;
58412;SDS011;44209;52.952;6.790;2023-01-05T05:23:04;19.90;;;4.63;;
58412;SDS011;44209;52.952;6.790;2023-01-05T05:25:30;16.13;;;4.40;;
58412;SDS011;44209;52.952;6.790;2023-01-05T05:27:56;20.30;;;4.70;;
58412;SDS011;44209;52.952;6.790;2023-01-05T05:30:22;21.40;;;4.63;;
58412;SDS011;44209;52.952;6.790;2023-01-05T05:32:47;19.23;;;4.47;;
58412;SDS011;44209;52.952;6.790;2023-01-05T05:35:13;15.97;;;4.57;;
58412;SDS011;44209;52.952;6.790;2023-01-05T05:37:39;17.33;;;4.37;;
58412;SDS011;44209;52.952;6.790;2023-01-05T05:40:05;17.60;;;4.40;;
58412;SDS011;44209;52.952;6.790;2023-01-05T05:42:31;17.03;;;4.57;;
58412;SDS011;44209;52.952;6.790;2023-01-05T05:44:57;22.33;;;4.63;;
58412;SDS011;44209;52.952;6.790;2023-01-05T05:47:23;18.27;;;4.63;;
58412;SDS011;44209;52.952;6.790;2023-01-05T05:49:48;16.70;;;4.43;;
58412;SDS011;44209;52.952;6.790;2023-01-05T05:52:14;22.77;;;4.83;;
58412;SDS011;44209;52.952;6.790;2023-01-05T05:54:40;15.33;;;4.60;;
58412;SDS011;44209;52.952;6.790;2023-01-05T05:57:05;20.57;;;4.80;;
58412;SDS011;44209;52.952;6.790;2023-01-05T05:59:31;17.63;;;4.60;;
58412;SDS011;44209;52.952;6.790;2023-01-05T06:01:57;24.77;;;4.90;;
58412;SDS011;44209;52.952;6.790;2023-01-05T06:04:23;20.93;;;5.37;;
58412;SDS011;44209;52.952;6.790;2023-01-05T06:06:48;23.60;;;4.53;;
58412;SDS011;44209;52.952;6.790;2023-01-05T06:09:14;20.87;;;4.53;;
58412;SDS011;44209;52.952;6.790;2023-01-05T06:11:41;20.17;;;5.10;;
58412;SDS011;44209;52.952;6.790;2023-01-05T06:14:07;15.10;;;4.50;;
58412;SDS011;44209;52.952;6.790;2023-01-05T06:16:33;19.90;;;5.07;;
58412;SDS011;44209;52.952;6.790;2023-01-05T06:18:58;19.43;;;5.30;;
58412;SDS011;44209;52.952;6.790;2023-01-05T06:21:24;19.77;;;5.07;;
58412;SDS011;44209;52.952;6.790;2023-01-05T06:23:50;22.27;;;5.40;;
58412;SDS011;44209;52.952;6.790;2023-01-05T06:26:16;21.50;;;4.97;;
58412;SDS011;44209;52.952;6.790;2023-01-05T06:28:42;20.93;;;4.60;;
58412;SDS011;44209;52.952;6.790;2023-01-05T06:31:07;17.77;;;4.50;;
58412;SDS011;44209;52.952;6.790;2023-01-05T06:33:33;20.60;;;4.97;;
58412;SDS011;44209;52.952;6.790;2023-01-05T06:35:59;19.33;;;4.80;;
58412;SDS011;44209;52.952;6.790;2023-01-05T06:38:25;25.80;;;5.63;;
58412;SDS011;44209;52.952;6.790;2023-01-05T06:40:50;18.37;;;4.20;;
58412;SDS011;44209;52.952;6.790;2023-01-05T06:43:16;20.73;;;4.70;;
58412;SDS011;44209;52.952;6.790;2023-01-05T06:45:43;23.37;;;5.10;;
58412;SDS011;44209;52.952;6.790;2023-01-05T06:48:08;21.17;;;5.20;;
58412;SDS011;44209;52.952;6.790;2023-01-05T06:50:34;18.50;;;5.00;;
58412;SDS011;44209;52.952;6.790;2023-01-05T06:53:00;18.47;;;4.83;;
58412;SDS011;44209;52.952;6.790;2023-01-05T06:55:26;16.93;;;4.67;;
58412;SDS011;44209;52.952;6.790;2023-01-05T06:57:52;18.57;;;4.93;;
58412;SDS011;44209;52.952;6.790;2023-01-05T07:00:18;21.33;;;5.10;;
58412;SDS011;44209;52.952;6.790;2023-01-05T07:02:44;17.37;;;4.87;;
58412;SDS011;44209;52.952;6.790;2023-01-05T07:05:10;21.90;;;5.23;;
58412;SDS011;44209;52.952;6.790;2023-01-05T07:07:35;23.53;;;5.73;;
58412;SDS011;44209;52.952;6.790;2023-01-05T07:10:01;19.43;;;5.87;;
58412;SDS011;44209;52.952;6.790;2023-01-05T07:12:28;18.87;;;5.73;;
58412;SDS011;44209;52.952;6.790;2023-01-05T07:14:54;25.83;;;6.13;;
58412;SDS011;44209;52.952;6.790;2023-01-05T07:17:19;22.90;;;6.37;;
58412;SDS011;44209;52.952;6.790;2023-01-05T07:19:45;23.10;;;5.33;;
58412;SDS011;44209;52.952;6.790;2023-01-05T07:22:11;15.57;;;4.33;;
58412;SDS011;44209;52.952;6.790;2023-01-05T07:24:36;23.03;;;5.20;;
58412;SDS011;44209;52.952;6.790;2023-01-05T07:27:02;22.23;;;5.00;;
58412;SDS011;44209;52.952;6.790;2023-01-05T07:29:28;20.20;;;5.33;;
58412;SDS011;44209;52.952;6.790;2023-01-05T07:31:54;19.73;;;5.10;;
58412;SDS011;44209;52.952;6.790;2023-01-05T07:34:20;21.23;;;4.70;;
58412;SDS011;44209;52.952;6.790;2023-01-05T07:36:46;22.87;;;5.30;;
58412;SDS011;44209;52.952;6.790;2023-01-05T07:39:13;17.47;;;4.97;;
58412;SDS011;44209;52.952;6.790;2023-01-05T07:41:39;21.30;;;4.90;;
58412;SDS011;44209;52.952;6.790;2023-01-05T07:44:05;20.33;;;5.33;;
58412;SDS011;44209;52.952;6.790;2023-01-05T07:46:31;23.00;;;5.40;;
58412;SDS011;44209;52.952;6.790;2023-01-05T07:49:00;22.73;;;7.57;;
58412;SDS011;44209;52.952;6.790;2023-01-05T07:51:44;20.87;;;4.60;;
58412;SDS011;44209;52.952;6.790;2023-01-05T07:54:10;20.77;;;5.20;;
58412;SDS011;44209;52.952;6.790;2023-01-05T07:56:39;19.13;;;4.87;;
58412;SDS011;44209;52.952;6.790;2023-01-05T07:59:07;20.20;;;4.60;;
58412;SDS011;44209;52.952;6.790;2023-01-05T08:01:45;20.03;;;5.37;;
58412;SDS011;44209;52.952;6.790;2023-01-05T08:04:36;21.07;;;4.90;;
58412;SDS011;44209;52.952;6.790;2023-01-05T08:07:08;22.43;;;5.23;;
58412;SDS011;44209;52.952;6.790;2023-01-05T08:09:38;19.70;;;4.63;;
58412;SDS011;44209;52.952;6.790;2023-01-05T08:12:26;20.73;;;5.10;;
58412;SDS011;44209;52.952;6.790;2023-01-05T08:14:55;19.00;;;4.47;;
58412;SDS011;44209;52.952;6.790;2023-01-05T08:17:33;19.93;;;5.43;;
58412;SDS011;44209;52.952;6.790;2023-01-05T08:20:05;21.43;;;4.30;;
58412;SDS011;44209;52.952;6.790;2023-01-05T08:22:40;28.07;;;5.40;;
58412;SDS011;44209;52.952;6.790;2023-01-05T08:25:09;20.70;;;4.77;;
58412;SDS011;44209;52.952;6.790;2023-01-05T08:27:37;17.77;;;4.50;;
58412;SDS011;44209;52.952;6.790;2023-01-05T08:30:09;26.17;;;5.20;;
58412;SDS011;44209;52.952;6.790;2023-01-05T08:32:35;21.13;;;4.60;;
58412;SDS011;44209;52.952;6.790;2023-01-05T08:35:01;22.13;;;4.30;;
58412;SDS011;44209;52.952;6.790;2023-01-05T08:37:30;20.63;;;4.13;;
58412;SDS011;44209;52.952;6.790;2023-01-05T08:40:01;14.57;;;4.20;;
58412;SDS011;44209;52.952;6.790;2023-01-05T08:42:30;19.97;;;4.50;;
58412;SDS011;44209;52.952;6.790;2023-01-05T08:44:58;15.43;;;3.80;;
58412;SDS011;44209;52.952;6.790;2023-01-05T08:47:27;16.98;;;4.32;;
58412;SDS011;44209;52.952;6.790;2023-01-05T08:49:53;19.90;;;5.67;;
58412;SDS011;44209;52.952;6.790;2023-01-05T08:52:28;22.25;;;5.53;;
58412;SDS011;44209;52.952;6.790;2023-01-05T08:54:56;22.00;;;4.40;;
58412;SDS011;44209;52.952;6.790;2023-01-05T08:57:30;16.90;;;4.37;;
58412;SDS011;44209;52.952;6.790;2023-01-05T09:00:01;14.03;;;4.23;;
58412;SDS011;44209;52.952;6.790;2023-01-05T09:02:49;20.93;;;4.33;;
58412;SDS011;44209;52.952;6.790;2023-01-05T09:05:15;23.07;;;5.20;;
58412;SDS011;44209;52.952;6.790;2023-01-05T09:07:41;21.00;;;5.10;;
58412;SDS011;44209;52.952;6.790;2023-01-05T09:10:23;15.20;;;3.37;;
58412;SDS011;44209;52.952;6.790;2023-01-05T09:13:36;18.57;;;5.20;;
58412;SDS011;44209;52.952;6.790;2023-01-05T09:19:00;17.47;;;4.30;;
58412;SDS011;44209;52.952;6.790;2023-01-05T09:21:28;18.97;;;4.30;;
58412;SDS011;44209;52.952;6.790;2023-01-05T09:23:54;17.03;;;3.90;;
58412;SDS011;44209;52.952;6.790;2023-01-05T09:26:20;12.63;;;3.70;;
58412;SDS011;44209;52.952;6.790;2023-01-05T09:28:45;18.10;;;3.90;;
58412;SDS011;44209;52.952;6.790;2023-01-05T09:31:13;16.57;;;4.23;;
58412;SDS011;44209;52.952;6.790;2023-01-05T09:33:40;15.67;;;4.13;;
58412;SDS011;44209;52.952;6.790;2023-01-05T09:36:07;18.10;;;4.97;;
58412;SDS011;44209;52.952;6.790;2023-01-05T09:38:34;17.17;;;4.40;;
58412;SDS011;44209;52.952;6.790;2023-01-05T09:41:04;16.03;;;4.27;;
58412;SDS011;44209;52.952;6.790;2023-01-05T09:43:47;20.33;;;4.27;;
58412;SDS011;44209;52.952;6.790;2023-01-05T09:46:20;20.47;;;4.47;;
58412;SDS011;44209;52.952;6.790;2023-01-05T09:48:51;19.07;;;4.37;;
58412;SDS011;44209;52.952;6.790;2023-01-05T09:51:19;16.33;;;4.27;;
58412;SDS011;44209;52.952;6.790;2023-01-05T09:53:46;18.83;;;4.67;;
58412;SDS011;44209;52.952;6.790;2023-01-05T09:56:25;18.27;;;4.50;;
58412;SDS011;44209;52.952;6.790;2023-01-05T10:01:39;19.43;;;5.00;;
58412;SDS011;44209;52.952;6.790;2023-01-05T10:04:09;19.43;;;4.70;;
58412;SDS011;44209;52.952;6.790;2023-01-05T10:06:41;16.73;;;4.03;;
58412;SDS011;44209;52.952;6.790;2023-01-05T10:09:12;17.73;;;3.90;;
58412;SDS011;44209;52.952;6.790;2023-01-05T10:11:56;17.27;;;4.13;;
58412;SDS011;44209;52.952;6.790;2023-01-05T10:14:43;16.17;;;4.03;;
58412;SDS011;44209;52.952;6.790;2023-01-05T10:17:18;17.33;;;4.37;;
58412;SDS011;44209;52.952;6.790;2023-01-05T10:19:45;16.50;;;3.93;;
58412;SDS011;44209;52.952;6.790;2023-01-05T10:27:52;15.40;;;4.27;;
58412;SDS011;44209;52.952;6.790;2023-01-05T10:30:33;17.13;;;3.67;;
58412;SDS011;44209;52.952;6.790;2023-01-05T10:38:57;19.13;;;4.20;;
58412;SDS011;44209;52.952;6.790;2023-01-05T10:41:44;17.43;;;4.07;;
58412;SDS011;44209;52.952;6.790;2023-01-05T10:47:10;21.20;;;4.97;;
58412;SDS011;44209;52.952;6.790;2023-01-05T10:49:37;12.53;;;3.87;;
58412;SDS011;44209;52.952;6.790;2023-01-05T10:54:43;14.80;;;3.70;;
58412;SDS011;44209;52.952;6.790;2023-01-05T10:59:56;17.10;;;3.93;;
58412;SDS011;44209;52.952;6.790;2023-01-05T11:02:24;13.60;;;4.20;;
58412;SDS011;44209;52.952;6.790;2023-01-05T11:04:52;15.57;;;4.47;;
58412;SDS011;44209;52.952;6.790;2023-01-05T11:07:20;14.90;;;3.70;;
58412;SDS011;44209;52.952;6.790;2023-01-05T11:09:46;14.80;;;3.63;;
58412;SDS011;44209;52.952;6.790;2023-01-05T11:12:17;13.10;;;3.33;;
58412;SDS011;44209;52.952;6.790;2023-01-05T11:14:46;15.88;;;3.55;;
58412;SDS011;44209;52.952;6.790;2023-01-05T11:17:17;13.88;;;4.03;;
58412;SDS011;44209;52.952;6.790;2023-01-05T11:19:46;10.50;;;2.90;;
58412;SDS011;44209;52.952;6.790;2023-01-05T11:22:34;10.93;;;2.93;;
58412;SDS011;44209;52.952;6.790;2023-01-05T11:30:45;12.33;;;3.17;;
58412;SDS011;44209;52.952;6.790;2023-01-05T11:33:26;13.20;;;2.60;;
58412;SDS011;44209;52.952;6.790;2023-01-05T11:35:55;8.87;;;2.40;;
58412;SDS011;44209;52.952;6.790;2023-01-05T11:38:23;8.93;;;2.60;;
58412;SDS011;44209;52.952;6.790;2023-01-05T11:40:51;10.50;;;3.13;;
58412;SDS011;44209;52.952;6.790;2023-01-05T11:43:18;12.67;;;2.80;;
58412;SDS011;44209;52.952;6.790;2023-01-05T11:45:49;11.83;;;2.57;;
58412;SDS011;44209;52.952;6.790;2023-01-05T11:48:19;10.17;;;2.83;;
58412;SDS011;44209;52.952;6.790;2023-01-05T11:50:51;11.27;;;2.77;;
58412;SDS011;44209;52.952;6.790;2023-01-05T11:53:22;11.83;;;3.13;;
58412;SDS011;44209;52.952;6.790;2023-01-05T11:56:02;12.47;;;2.70;;
58412;SDS011;44209;52.952;6.790;2023-01-05T12:01:20;8.97;;;2.40;;
58412;SDS011;44209;52.952;6.790;2023-01-05T12:09:44;12.60;;;2.60;;
58412;SDS011;44209;52.952;6.790;2023-01-05T12:12:27;14.97;;;2.63;;
58412;SDS011;44209;52.952;6.790;2023-01-05T12:26:11;8.67;;;2.70;;
58412;SDS011;44209;52.952;6.790;2023-01-05T12:41:00;19.93;;;4.00;;
58412;SDS011;44209;52.952;6.790;2023-01-05T12:49:26;10.97;;;3.50;;
58412;SDS011;44209;52.952;6.790;2023-01-05T12:52:06;13.40;;;3.47;;
58412;SDS011;44209;52.952;6.790;2023-01-05T12:54:39;13.17;;;3.57;;
58412;SDS011;44209;52.952;6.790;2023-01-05T12:57:34;15.77;;;4.30;;
58412;SDS011;44209;52.952;6.790;2023-01-05T13:00:08;13.90;;;3.50;;
58412;SDS011;44209;52.952;6.790;2023-01-05T13:03:20;14.13;;;3.50;;
58412;SDS011;44209;52.952;6.790;2023-01-05T13:05:31;13.30;;;2.97;;
58412;SDS011;44209;52.952;6.790;2023-01-05T13:10:54;15.70;;;3.30;;
58412;SDS011;44209;52.952;6.790;2023-01-05T13:13:33;16.90;;;4.13;;
58412;SDS011;44209;52.952;6.790;2023-01-05T13:18:34;11.30;;;3.87;;
58412;SDS011;44209;52.952;6.790;2023-01-05T13:21:03;12.47;;;4.40;;
58412;SDS011;44209;52.952;6.790;2023-01-05T13:23:32;17.17;;;4.37;;
58412;SDS011;44209;52.952;6.790;2023-01-05T13:26:13;14.33;;;3.90;;
58412;SDS011;44209;52.952;6.790;2023-01-05T13:28:40;17.23;;;4.63;;
58412;SDS011;44209;52.952;6.790;2023-01-05T13:31:11;17.90;;;4.50;;
58412;SDS011;44209;52.952;6.790;2023-01-05T13:39:38;15.27;;;4.00;;
58412;SDS011;44209;52.952;6.790;2023-01-05T13:42:26;13.03;;;4.40;;
58412;SDS011;44209;52.952;6.790;2023-01-05T13:48:06;19.43;;;4.63;;
58412;SDS011;44209;52.952;6.790;2023-01-05T13:50:59;18.17;;;4.03;;
58412;SDS011;44209;52.952;6.790;2023-01-05T13:53:47;15.80;;;4.50;;
58412;SDS011;44209;52.952;6.790;2023-01-05T13:56:24;23.33;;;10.43;;
58412;SDS011;44209;52.952;6.790;2023-01-05T13:58:57;23.53;;;4.47;;
58412;SDS011;44209;52.952;6.790;2023-01-05T14:01:33;20.73;;;4.93;;
58412;SDS011;44209;52.952;6.790;2023-01-05T14:04:04;18.13;;;4.27;;
58412;SDS011;44209;52.952;6.790;2023-01-05T14:06:42;14.17;;;4.40;;
58412;SDS011;44209;52.952;6.790;2023-01-05T14:09:14;21.37;;;4.87;;
58412;SDS011;44209;52.952;6.790;2023-01-05T14:36:22;19.90;;;5.63;;
58412;SDS011;44209;52.952;6.790;2023-01-05T14:39:21;24.67;;;5.33;;
58412;SDS011;44209;52.952;6.790;2023-01-05T14:44:29;18.87;;;4.90;;
58412;SDS011;44209;52.952;6.790;2023-01-05T14:47:16;17.83;;;5.03;;
58412;SDS011;44209;52.952;6.790;2023-01-05T14:50:04;20.20;;;5.10;;
58412;SDS011;44209;52.952;6.790;2023-01-05T14:55:20;19.27;;;5.13;;
58412;SDS011;44209;52.952;6.790;2023-01-05T15:00:22;21.63;;;5.70;;
58412;SDS011;44209;52.952;6.790;2023-01-05T15:02:57;17.87;;;4.80;;
58412;SDS011;44209;52.952;6.790;2023-01-05T15:05:32;19.20;;;5.07;;
58412;SDS011;44209;52.952;6.790;2023-01-05T15:08:08;22.77;;;5.87;;
58412;SDS011;44209;52.952;6.790;2023-01-05T15:15:59;23.13;;;5.50;;
58412;SDS011;44209;52.952;6.790;2023-01-05T15:21:30;22.73;;;5.40;;
58412;SDS011;44209;52.952;6.790;2023-01-05T15:24:15;26.63;;;5.87;;
58412;SDS011;44209;52.952;6.790;2023-01-05T15:31:56;20.63;;;4.57;;
58412;SDS011;44209;52.952;6.790;2023-01-05T15:34:37;19.73;;;4.90;;
58412;SDS011;44209;52.952;6.790;2023-01-05T15:37:32;16.67;;;5.00;;
58412;SDS011;44209;52.952;6.790;2023-01-05T15:39:59;16.20;;;4.57;;
58412;SDS011;44209;52.952;6.790;2023-01-05T15:44:57;18.10;;;5.13;;
58412;SDS011;44209;52.952;6.790;2023-01-05T15:47:24;21.73;;;5.60;;
58412;SDS011;44209;52.952;6.790;2023-01-05T15:49:55;24.47;;;5.60;;
58412;SDS011;44209;52.952;6.790;2023-01-05T15:52:34;23.10;;;5.60;;
58412;SDS011;44209;52.952;6.790;2023-01-05T15:55:03;28.13;;;6.13;;
58412;SDS011;44209;52.952;6.790;2023-01-05T15:57:40;20.20;;;6.17;;
58412;SDS011;44209;52.952;6.790;2023-01-05T16:00:14;25.50;;;6.80;;
58412;SDS011;44209;52.952;6.790;2023-01-05T16:02:40;18.53;;;5.27;;
58412;SDS011;44209;52.952;6.790;2023-01-05T16:05:07;25.80;;;5.93;;
58412;SDS011;44209;52.952;6.790;2023-01-05T16:07:45;20.63;;;6.60;;
58412;SDS011;44209;52.952;6.790;2023-01-05T16:10:19;21.13;;;6.07;;
58412;SDS011;44209;52.952;6.790;2023-01-05T16:12:48;18.57;;;5.73;;
58412;SDS011;44209;52.952;6.790;2023-01-05T16:15:16;22.47;;;6.03;;
58412;SDS011;44209;52.952;6.790;2023-01-05T16:17:46;25.20;;;6.13;;
58412;SDS011;44209;52.952;6.790;2023-01-05T16:20:20;25.80;;;6.27;;
58412;SDS011;44209;52.952;6.790;2023-01-05T16:23:05;20.33;;;5.20;;
58412;SDS011;44209;52.952;6.790;2023-01-05T16:25:34;21.17;;;5.40;;
58412;SDS011;44209;52.952;6.790;2023-01-05T16:28:16;18.93;;;5.50;;
58412;SDS011;44209;52.952;6.790;2023-01-05T16:30:44;20.00;;;5.57;;
58412;SDS011;44209;52.952;6.790;2023-01-05T16:36:11;24.03;;;6.10;;
58412;SDS011;44209;52.952;6.790;2023-01-05T16:38:42;22.63;;;5.60;;
58412;SDS011;44209;52.952;6.790;2023-01-05T16:48:55;27.80;;;5.83;;
58412;SDS011;44209;52.952;6.790;2023-01-05T16:54:03;31.77;;;6.40;;
58412;SDS011;44209;52.952;6.790;2023-01-05T16:59:00;21.77;;;5.93;;
58412;SDS011;44209;52.952;6.790;2023-01-05T17:04:09;27.53;;;6.20;;
58412;SDS011;44209;52.952;6.790;2023-01-05T17:06:36;23.87;;;6.27;;
58412;SDS011;44209;52.952;6.790;2023-01-05T17:09:05;22.33;;;6.53;;
58412;SDS011;44209;52.952;6.790;2023-01-05T17:11:36;24.07;;;6.07;;
58412;SDS011;44209;52.952;6.790;2023-01-05T17:14:03;33.03;;;6.77;;
58412;SDS011;44209;52.952;6.790;2023-01-05T17:16:31;26.03;;;6.63;;
58412;SDS011;44209;52.952;6.790;2023-01-05T17:18:59;28.27;;;6.37;;
58412;SDS011;44209;52.952;6.790;2023-01-05T17:21:25;28.63;;;6.00;;
58412;SDS011;44209;52.952;6.790;2023-01-05T17:23:54;23.33;;;6.20;;
58412;SDS011;44209;52.952;6.790;2023-01-05T17:28:53;22.60;;;6.00;;
58412;SDS011;44209;52.952;6.790;2023-01-05T17:31:22;29.07;;;6.43;;
58412;SDS011;44209;52.952;6.790;2023-01-05T17:33:48;24.30;;;6.13;;
58412;SDS011;44209;52.952;6.790;2023-01-05T17:36:13;30.03;;;6.83;;
58412;SDS011;44209;52.952;6.790;2023-01-05T17:38:40;26.60;;;6.50;;
58412;SDS011;44209;52.952;6.790;2023-01-05T17:41:06;22.23;;;6.77;;
58412;SDS011;44209;52.952;6.790;2023-01-05T17:43:34;26.93;;;6.70;;
58412;SDS011;44209;52.952;6.790;2023-01-05T17:46:00;24.77;;;6.20;;
58412;SDS011;44209;52.952;6.790;2023-01-05T17:48:26;29.67;;;6.53;;
58412;SDS011;44209;52.952;6.790;2023-01-05T17:50:51;28.70;;;7.47;;
58412;SDS011;44209;52.952;6.790;2023-01-05T17:53:17;31.27;;;7.03;;
58412;SDS011;44209;52.952;6.790;2023-01-05T17:55:43;24.43;;;6.53;;
58412;SDS011;44209;52.952;6.790;2023-01-05T17:58:12;30.13;;;6.70;;